createdAt,value
2024-04-07T18:48:42.182Z,6.50
2024-04-07T18:51:08.688Z,5.77
2024-04-07T18:53:35.199Z,5.82
2024-04-07T18:56:01.642Z,5.80
2024-04-07T18:58:28.100Z,6.03
2024-04-07T19:00:54.611Z,6.05
2024-04-07T19:03:21.141Z,5.32
2024-04-07T19:05:51.481Z,5.63
2024-04-07T19:10:44.360Z,5.88
2024-04-07T19:13:10.978Z,6.78
2024-04-07T19:15:37.799Z,6.20
2024-04-07T19:18:04.480Z,6.10
2024-04-07T19:20:30.981Z,6.53
2024-04-07T19:22:57.508Z,5.90
2024-04-07T19:25:24.163Z,5.40
2024-04-07T19:27:50.655Z,5.95
2024-04-07T19:30:17.212Z,5.68
2024-04-07T19:32:44.137Z,5.82
2024-04-07T19:35:10.631Z,6.15
2024-04-07T19:37:37.108Z,6.35
2024-04-07T19:40:04.165Z,5.90
2024-04-07T19:42:31.859Z,5.40
2024-04-07T19:45:02.082Z,5.80
2024-04-07T19:47:28.596Z,5.70
2024-04-07T19:49:55.125Z,6.90
2024-04-07T19:52:21.632Z,5.35
2024-04-07T19:54:48.507Z,5.38
2024-04-07T19:57:14.978Z,5.25
2024-04-07T19:59:41.469Z,4.72
2024-04-07T20:02:08.139Z,5.40
2024-04-07T20:04:36.907Z,5.28
2024-04-07T20:07:03.421Z,5.50
2024-04-07T20:09:35.577Z,5.40
2024-04-07T20:12:03.525Z,5.30
2024-04-07T20:14:30.000Z,5.50
2024-04-07T20:16:56.451Z,4.43
2024-04-07T20:19:22.954Z,4.85
2024-04-07T20:21:49.390Z,4.38
2024-04-07T20:24:16.600Z,4.60
2024-04-07T20:26:43.144Z,4.15
2024-04-07T20:29:09.679Z,4.28
2024-04-07T20:31:36.156Z,5.18
2024-04-07T20:34:02.622Z,4.90
2024-04-07T20:36:29.087Z,4.45
2024-04-07T20:38:55.549Z,4.53
2024-04-07T20:41:23.482Z,4.63
2024-04-07T20:43:50.105Z,5.00
2024-04-07T20:46:17.772Z,5.32
2024-04-07T20:48:47.247Z,4.63
2024-04-07T20:51:14.942Z,4.90
2024-04-07T20:53:41.417Z,4.80
2024-04-07T20:56:07.888Z,4.78
2024-04-07T20:58:34.366Z,5.60
2024-04-07T21:01:00.808Z,5.97
2024-04-07T21:03:27.339Z,5.93
2024-04-07T21:05:53.818Z,5.50
2024-04-07T21:08:20.283Z,5.60
2024-04-07T21:10:46.824Z,6.13
2024-04-07T21:13:13.316Z,5.85
2024-04-07T21:15:39.979Z,5.60
2024-04-07T21:18:06.432Z,6.07
2024-04-07T21:20:33.991Z,5.90
2024-04-07T21:23:00.563Z,5.65
2024-04-07T21:25:27.099Z,5.57
2024-04-07T21:27:54.384Z,6.47
2024-04-07T21:30:20.899Z,6.00
2024-04-07T21:32:47.366Z,6.15
2024-04-07T21:35:13.854Z,6.40
2024-04-07T21:37:43.271Z,5.10
2024-04-07T21:40:10.285Z,5.05
2024-04-07T21:42:36.895Z,4.70
2024-04-07T21:45:03.440Z,4.53
2024-04-07T21:47:29.997Z,5.20
2024-04-07T21:49:56.577Z,4.80
2024-04-07T21:52:23.080Z,4.50
2024-04-07T21:54:49.575Z,4.75
2024-04-07T21:57:16.056Z,4.43
2024-04-07T21:59:42.502Z,4.20
2024-04-07T22:02:08.986Z,4.30
2024-04-07T22:04:35.456Z,4.28
2024-04-07T22:07:01.915Z,4.15
2024-04-07T22:09:28.378Z,3.90
2024-04-07T22:11:56.226Z,4.30
2024-04-07T22:14:22.876Z,4.07
2024-04-07T22:16:49.367Z,4.30
2024-04-07T22:19:18.521Z,4.38
2024-04-07T22:21:48.342Z,4.70
2024-04-07T22:24:14.833Z,4.22
2024-04-07T22:26:41.310Z,3.45
2024-04-07T22:29:07.829Z,3.10
2024-04-07T22:31:34.305Z,3.10
2024-04-07T22:34:04.005Z,2.53
2024-04-07T22:36:30.469Z,2.63
2024-04-07T22:38:58.312Z,2.70
2024-04-07T22:41:24.842Z,2.95
2024-04-07T22:43:51.322Z,2.90
2024-04-07T22:46:17.774Z,2.13
2024-04-07T22:48:44.296Z,2.30
2024-04-07T22:51:10.756Z,2.30
2024-04-07T22:53:37.204Z,2.20
2024-04-07T22:56:03.840Z,2.50
2024-04-07T22:58:30.348Z,2.35
2024-04-07T23:00:56.943Z,2.28
2024-04-07T23:03:23.390Z,2.60
2024-04-07T23:05:55.947Z,2.50
2024-04-07T23:08:22.422Z,2.42
2024-04-07T23:10:49.082Z,2.60
2024-04-07T23:13:15.563Z,2.33
2024-04-07T23:15:42.129Z,2.28
2024-04-07T23:18:10.547Z,2.40
2024-04-07T23:20:37.146Z,2.80
2024-04-07T23:23:03.715Z,2.60
2024-04-07T23:25:30.190Z,2.63
2024-04-07T23:27:56.728Z,2.80
2024-04-07T23:30:23.223Z,2.80
2024-04-07T23:32:49.740Z,2.90
2024-04-07T23:35:16.318Z,2.92
2024-04-07T23:37:42.773Z,3.20
2024-04-07T23:40:12.807Z,3.00
2024-04-07T23:42:39.463Z,2.97
2024-04-07T23:45:06.759Z,2.80
2024-04-07T23:47:33.286Z,2.65
2024-04-07T23:49:59.759Z,2.63
2024-04-07T23:52:26.290Z,2.90
2024-04-07T23:54:52.822Z,2.85
2024-04-07T23:57:19.294Z,3.15
2024-04-07T23:59:45.750Z,2.80
